Time;durP1;ratioP1;P1;durP2;ratioP2;P2;SDS_P1;SDS_P2;PMS_P1;PMS_P2;Temp;Humidity;BMP_temperature;BMP_pressure;BME280_temperature;BME280_humidity;BME280_pressure;Samples;Min_cycle;Max_cycle;Signal;HPM_P1;HPM_P2
2023/08/14 00:02:22;;;;;;;3.80;2.17;;;15.30;99.90;;;;;;5022142;28;20247;-80
2023/08/14 00:04:49;;;;;;;2.97;2.03;;;15.30;99.90;;;;;;5028533;28;20243;-79
2023/08/14 00:07:17;;;;;;;3.70;2.13;;;15.30;99.90;;;;;;5032812;28;20754;-79
2023/08/14 00:09:43;;;;;;;2.73;2.17;;;15.30;99.90;;;;;;5034422;28;20268;-79
2023/08/14 00:12:10;;;;;;;5.43;2.23;;;15.20;99.90;;;;;;5030098;28;20598;-79
2023/08/14 00:14:37;;;;;;;7.70;2.30;;;15.20;99.90;;;;;;5021709;28;20325;-80
2023/08/14 00:17:03;;;;;;;4.13;2.37;;;15.20;99.90;;;;;;5025703;28;20227;-81
2023/08/14 00:19:30;;;;;;;5.77;2.77;;;15.20;99.90;;;;;;5025365;28;20656;-79
2023/08/14 00:21:57;;;;;;;3.70;2.57;;;15.10;99.90;;;;;;5028941;28;20238;-79
2023/08/14 00:24:25;;;;;;;4.67;2.20;;;15.20;99.90;;;;;;5028568;28;20232;-80
2023/08/14 00:26:52;;;;;;;5.27;2.20;;;15.10;99.90;;;;;;5030891;28;20227;-79
2023/08/14 00:29:18;;;;;;;4.33;2.30;;;15.10;99.90;;;;;;5031578;28;20288;-79
2023/08/14 00:31:45;;;;;;;3.57;2.00;;;15.10;99.90;;;;;;5033748;28;20342;-79
2023/08/14 00:34:12;;;;;;;5.20;2.10;;;15.10;99.90;;;;;;5025765;28;20318;-79
2023/08/14 00:36:38;;;;;;;3.30;1.90;;;15.10;99.90;;;;;;5027656;28;20247;-79
2023/08/14 00:39:06;;;;;;;3.07;2.30;;;15.10;99.90;;;;;;5029481;28;20231;-80
2023/08/14 00:41:34;;;;;;;3.63;1.90;;;15.00;99.90;;;;;;5028248;28;20238;-81
2023/08/14 00:44:01;;;;;;;4.43;2.60;;;15.00;99.90;;;;;;5026012;28;20705;-79
2023/08/14 00:46:28;;;;;;;6.13;2.37;;;15.00;99.90;;;;;;5033804;28;20362;-80
2023/08/14 00:48:54;;;;;;;5.57;2.37;;;15.00;99.90;;;;;;5033271;28;20842;-81
2023/08/14 00:51:23;;;;;;;6.17;2.20;;;15.00;99.90;;;;;;5023511;28;20299;-81
2023/08/14 00:53:50;;;;;;;3.97;2.30;;;14.90;99.90;;;;;;5026092;28;20232;-80
2023/08/14 00:56:17;;;;;;;6.40;2.43;;;14.90;99.90;;;;;;5022024;28;20235;-80
2023/08/14 00:58:46;;;;;;;4.67;2.03;;;14.90;99.90;;;;;;5024134;28;20318;-80
2023/08/14 01:01:13;;;;;;;3.27;2.17;;;14.90;99.90;;;;;;5034690;28;20266;-79
2023/08/14 01:03:40;;;;;;;4.97;2.50;;;14.90;99.90;;;;;;5030819;28;20233;-80
2023/08/14 01:06:08;;;;;;;3.83;2.37;;;14.90;99.90;;;;;;5030592;28;20221;-80
2023/08/14 01:08:35;;;;;;;4.87;2.17;;;14.80;99.90;;;;;;5032074;28;20765;-79
2023/08/14 01:11:12;;;;;;;5.20;2.10;;;14.80;99.90;;;;;;5033556;28;20757;-79
2023/08/14 01:13:49;;;;;;;4.60;2.27;;;14.80;99.90;;;;;;5032729;28;20234;-79
2023/08/14 01:16:22;;;;;;;4.03;2.20;;;14.80;99.90;;;;;;5021320;28;20262;-79
2023/08/14 01:18:50;;;;;;;6.23;2.30;;;14.80;99.90;;;;;;5022534;28;20693;-80
2023/08/14 01:21:43;;;;;;;4.47;2.33;;;14.80;99.90;;;;;;5023219;28;20295;-80
2023/08/14 01:24:20;;;;;;;4.07;2.40;;;14.80;99.90;;;;;;5027703;28;20868;-80
2023/08/14 01:26:50;;;;;;;3.10;2.13;;;14.70;99.90;;;;;;5021930;28;20225;-80
2023/08/14 01:29:17;;;;;;;3.87;2.40;;;14.70;99.90;;;;;;5030005;28;20309;-81
2023/08/14 01:31:44;;;;;;;6.03;2.30;;;14.70;99.90;;;;;;5028248;28;20218;-81
2023/08/14 01:34:12;;;;;;;3.23;2.27;;;14.60;99.90;;;;;;5030559;28;20227;-81
2023/08/14 01:36:44;;;;;;;4.50;2.30;;;14.60;99.90;;;;;;5016792;28;20685;-81
2023/08/14 01:39:11;;;;;;;5.23;2.40;;;14.60;99.90;;;;;;5031260;28;20224;-81
2023/08/14 01:41:49;;;;;;;2.87;2.27;;;14.60;99.90;;;;;;5027352;28;20913;-80
2023/08/14 01:44:21;;;;;;;4.60;2.10;;;14.60;99.90;;;;;;5031613;28;20817;-80
2023/08/14 01:46:49;;;;;;;6.17;2.30;;;14.60;99.90;;;;;;5051201;28;20769;-79
2023/08/14 01:49:19;;;;;;;3.67;2.03;;;14.50;99.90;;;;;;5025667;28;20258;-81
2023/08/14 01:51:47;;;;;;;3.80;1.93;;;14.50;99.90;;;;;;5031428;28;20257;-81
2023/08/14 01:54:14;;;;;;;3.10;1.77;;;14.50;99.90;;;;;;5026447;28;20290;-81
2023/08/14 01:56:41;;;;;;;7.00;2.20;;;14.50;99.90;;;;;;5024222;28;20234;-81
2023/08/14 01:59:08;;;;;;;4.10;2.33;;;14.50;99.90;;;;;;5024774;28;20314;-81
2023/08/14 02:01:36;;;;;;;7.73;2.80;;;14.50;99.90;;;;;;5024609;28;20228;-81
2023/08/14 02:04:04;;;;;;;3.60;2.30;;;14.40;99.90;;;;;;5028289;28;20304;-78
2023/08/14 02:06:32;;;;;;;6.60;2.70;;;14.40;99.90;;;;;;5026525;28;20235;-79
2023/08/14 02:08:59;;;;;;;4.33;2.37;;;14.40;99.90;;;;;;5035606;28;20703;-80
2023/08/14 02:11:26;;;;;;;3.87;1.83;;;14.40;99.90;;;;;;5029620;28;20222;-81
2023/08/14 02:13:52;;;;;;;3.97;2.10;;;14.40;99.90;;;;;;5030992;28;20288;-81
2023/08/14 02:16:19;;;;;;;4.73;2.20;;;14.40;99.90;;;;;;5027117;28;20243;-80
2023/08/14 02:18:48;;;;;;;2.53;2.00;;;14.40;99.90;;;;;;5030512;28;20234;-80
2023/08/14 02:21:14;;;;;;;5.77;2.60;;;14.40;99.90;;;;;;5024673;28;20235;-81
2023/08/14 02:23:41;;;;;;;4.83;2.27;;;14.40;99.90;;;;;;5029165;28;20227;-81
2023/08/14 02:26:09;;;;;;;6.37;2.53;;;14.40;99.90;;;;;;5023565;28;20225;-81
2023/08/14 02:28:36;;;;;;;6.83;2.30;;;14.30;99.90;;;;;;5034785;28;20230;-80
2023/08/14 02:31:03;;;;;;;3.67;2.30;;;14.30;99.90;;;;;;5042701;28;20246;-81
2023/08/14 02:33:29;;;;;;;6.20;2.90;;;14.30;99.90;;;;;;5051297;28;20679;-81
2023/08/14 02:35:57;;;;;;;5.60;2.73;;;14.30;99.90;;;;;;5017228;28;20224;-81
2023/08/14 02:38:24;;;;;;;3.50;2.40;;;14.30;99.90;;;;;;5027135;28;20918;-81
2023/08/14 02:40:51;;;;;;;5.07;2.50;;;14.30;99.90;;;;;;5034491;28;20317;-81
2023/08/14 02:43:17;;;;;;;4.40;2.27;;;14.30;99.90;;;;;;5028815;28;20237;-82
2023/08/14 02:45:44;;;;;;;4.73;2.73;;;14.30;99.90;;;;;;5042550;28;20282;-81
2023/08/14 02:48:11;;;;;;;4.77;2.50;;;14.30;99.90;;;;;;5027454;28;20247;-80
2023/08/14 02:50:38;;;;;;;6.43;2.53;;;14.30;99.90;;;;;;5045944;28;20297;-81
2023/08/14 02:53:06;;;;;;;5.33;2.30;;;14.20;99.90;;;;;;5030081;28;20250;-80
2023/08/14 02:55:33;;;;;;;3.27;2.00;;;14.20;99.90;;;;;;5023611;28;20231;-81
2023/08/14 02:58:00;;;;;;;6.40;2.20;;;14.20;99.90;;;;;;5019577;28;20234;-82
2023/08/14 03:00:26;;;;;;;3.70;2.00;;;14.20;99.90;;;;;;5018862;28;20317;-82
2023/08/14 03:02:53;;;;;;;4.43;2.40;;;14.10;99.90;;;;;;5016023;28;20225;-81
2023/08/14 03:05:20;;;;;;;2.83;2.00;;;14.10;99.90;;;;;;5017253;28;20237;-81
2023/08/14 03:07:47;;;;;;;3.33;2.40;;;14.10;99.90;;;;;;5015035;28;20908;-82
2023/08/14 03:10:15;;;;;;;6.30;2.40;;;14.10;99.90;;;;;;5028519;28;20604;-80
2023/08/14 03:12:42;;;;;;;4.23;2.23;;;14.00;99.90;;;;;;5031554;28;20234;-80
2023/08/14 03:15:09;;;;;;;3.93;2.43;;;14.00;99.90;;;;;;5030198;28;20827;-81
2023/08/14 03:17:36;;;;;;;3.00;2.33;;;14.00;99.90;;;;;;5025911;28;20908;-81
2023/08/14 03:20:04;;;;;;;5.27;2.83;;;13.90;99.90;;;;;;5034414;28;20227;-80
2023/08/14 03:22:31;;;;;;;4.00;2.47;;;13.90;99.90;;;;;;5030101;28;20322;-80
2023/08/14 03:24:58;;;;;;;4.43;2.50;;;13.90;99.90;;;;;;5021887;28;20271;-81
2023/08/14 03:27:27;;;;;;;3.83;2.53;;;13.90;99.90;;;;;;5024632;28;20894;-81
2023/08/14 03:29:54;;;;;;;4.27;2.80;;;13.80;99.90;;;;;;5028146;28;20225;-81
2023/08/14 03:32:21;;;;;;;3.23;2.50;;;13.80;99.90;;;;;;5029527;28;20265;-81
2023/08/14 03:34:48;;;;;;;3.53;2.27;;;13.80;99.90;;;;;;5031404;28;20233;-81
2023/08/14 03:37:15;;;;;;;3.73;2.23;;;13.80;99.90;;;;;;5026879;28;20231;-81
2023/08/14 03:39:42;;;;;;;4.83;2.53;;;13.80;99.90;;;;;;5034474;28;20292;-80
2023/08/14 03:42:10;;;;;;;4.10;2.40;;;13.80;99.90;;;;;;5027111;28;20864;-81
2023/08/14 03:44:38;;;;;;;4.13;2.53;;;13.70;99.90;;;;;;5022012;28;20250;-80
2023/08/14 03:47:05;;;;;;;4.27;2.60;;;13.70;99.90;;;;;;5024970;28;20251;-81
2023/08/14 03:49:32;;;;;;;5.63;2.73;;;13.70;99.90;;;;;;5030469;28;20247;-81
2023/08/14 03:51:59;;;;;;;3.37;2.23;;;13.70;99.90;;;;;;5024762;28;20289;-80
2023/08/14 03:54:26;;;;;;;3.17;2.17;;;13.70;99.90;;;;;;5029455;28;20243;-80
2023/08/14 03:56:52;;;;;;;6.03;2.83;;;13.70;99.90;;;;;;5023537;28;20313;-81
2023/08/14 03:59:19;;;;;;;5.00;2.60;;;13.60;99.90;;;;;;5031525;28;20320;-81
2023/08/14 04:01:47;;;;;;;3.80;2.57;;;13.60;99.90;;;;;;5025092;28;20230;-81
2023/08/14 04:04:14;;;;;;;5.70;2.63;;;13.60;99.90;;;;;;5026645;28;20228;-80
2023/08/14 04:06:42;;;;;;;4.43;2.63;;;13.60;99.90;;;;;;5023254;28;20224;-81
2023/08/14 04:09:09;;;;;;;3.20;2.43;;;13.60;99.90;;;;;;5028149;28;20251;-80
2023/08/14 04:11:36;;;;;;;5.70;3.00;;;13.60;99.90;;;;;;5031028;28;20224;-80
2023/08/14 04:14:03;;;;;;;5.43;2.80;;;13.60;99.90;;;;;;5031347;28;20234;-80
2023/08/14 04:16:43;;;;;;;4.83;2.80;;;13.60;99.90;;;;;;5045928;28;20297;-80
2023/08/14 04:19:13;;;;;;;3.97;3.13;;;13.60;99.90;;;;;;5031107;28;20235;-80
2023/08/14 04:21:39;;;;;;;5.63;2.60;;;13.60;99.90;;;;;;5029292;28;20227;-80
2023/08/14 04:24:07;;;;;;;3.47;2.63;;;13.60;99.90;;;;;;5031500;28;21174;-81
2023/08/14 04:26:34;;;;;;;5.23;3.00;;;13.70;99.90;;;;;;5025941;28;20227;-80
2023/08/14 04:29:01;;;;;;;3.40;2.43;;;13.70;99.90;;;;;;5023220;28;20231;-80
2023/08/14 04:31:28;;;;;;;3.97;2.43;;;13.70;99.90;;;;;;5024930;28;20253;-81
2023/08/14 04:33:54;;;;;;;3.70;2.53;;;13.60;99.90;;;;;;5031746;28;20215;-81
2023/08/14 04:36:23;;;;;;;5.47;3.00;;;13.80;99.90;;;;;;5029812;28;20237;-81
2023/08/14 04:38:50;;;;;;;4.50;2.70;;;13.70;99.90;;;;;;5022334;28;21076;-81
2023/08/14 04:41:17;;;;;;;4.40;2.57;;;13.70;99.90;;;;;;5025504;28;20229;-80
2023/08/14 04:43:44;;;;;;;4.70;2.90;;;13.70;99.90;;;;;;5028137;28;20764;-81
2023/08/14 04:46:12;;;;;;;5.70;3.00;;;13.80;99.90;;;;;;5030979;28;20261;-80
2023/08/14 04:48:38;;;;;;;5.63;2.87;;;13.80;99.90;;;;;;5022928;28;20253;-80
2023/08/14 04:51:06;;;;;;;6.20;3.03;;;13.80;99.90;;;;;;5020615;28;20619;-81
2023/08/14 04:53:34;;;;;;;3.93;2.90;;;13.80;99.90;;;;;;5026277;28;20827;-82
2023/08/14 04:56:01;;;;;;;4.93;3.57;;;13.90;99.90;;;;;;5040156;28;20214;-81
2023/08/14 04:58:28;;;;;;;6.23;2.70;;;13.90;99.90;;;;;;5032167;28;20300;-80
2023/08/14 05:00:55;;;;;;;4.80;2.80;;;13.90;99.90;;;;;;5028272;28;20225;-80
2023/08/14 05:03:22;;;;;;;6.17;2.90;;;13.90;99.90;;;;;;5032082;28;20770;-80
2023/08/14 05:05:52;;;;;;;7.27;2.80;;;14.00;99.90;;;;;;5021295;28;20227;-80
2023/08/14 05:08:19;;;;;;;3.60;2.60;;;14.00;99.90;;;;;;5024900;28;20238;-80
2023/08/14 05:10:51;;;;;;;5.73;3.00;;;14.10;99.90;;;;;;5024705;28;20281;-79
2023/08/14 05:13:18;;;;;;;4.83;2.63;;;14.10;99.90;;;;;;5022843;28;20655;-79
2023/08/14 05:15:47;;;;;;;6.43;2.77;;;14.20;99.90;;;;;;5023244;28;20230;-79
2023/08/14 05:18:14;;;;;;;5.40;2.73;;;14.30;99.90;;;;;;5020259;28;20231;-79
2023/08/14 05:20:43;;;;;;;3.00;2.20;;;14.30;99.90;;;;;;5031480;28;20331;-80
2023/08/14 05:23:10;;;;;;;4.93;2.70;;;14.40;99.90;;;;;;5028482;28;20227;-79
2023/08/14 05:25:36;;;;;;;5.50;2.77;;;14.40;99.90;;;;;;5041408;28;20219;-80
2023/08/14 05:28:06;;;;;;;6.03;2.80;;;14.50;99.90;;;;;;5023736;28;20235;-80
2023/08/14 05:30:33;;;;;;;6.03;3.27;;;14.60;99.90;;;;;;5024863;28;20869;-79
2023/08/14 05:33:01;;;;;;;6.93;3.00;;;14.60;99.90;;;;;;5018338;28;20285;-80
2023/08/14 05:35:29;;;;;;;7.67;2.93;;;14.70;99.90;;;;;;5026989;28;20283;-80
2023/08/14 05:37:57;;;;;;;4.67;2.83;;;14.80;99.90;;;;;;5031296;28;20910;-79
2023/08/14 05:40:25;;;;;;;5.47;2.90;;;14.90;99.90;;;;;;5036935;28;20258;-80
2023/08/14 05:43:03;;;;;;;6.40;3.20;;;14.90;99.90;;;;;;5033094;28;20263;-80
2023/08/14 05:45:31;;;;;;;5.43;3.33;;;15.00;99.90;;;;;;5033806;28;20229;-81
2023/08/14 05:47:59;;;;;;;4.93;3.37;;;15.00;99.90;;;;;;5030161;28;20216;-81
2023/08/14 05:50:27;;;;;;;5.93;2.93;;;15.20;99.90;;;;;;5024491;28;20902;-81
2023/08/14 05:52:56;;;;;;;5.87;2.90;;;15.20;99.90;;;;;;5028873;28;20248;-80
2023/08/14 05:55:23;;;;;;;4.80;3.10;;;15.30;99.90;;;;;;5028201;28;20237;-80
2023/08/14 05:57:50;;;;;;;4.87;3.23;;;15.40;99.90;;;;;;5025451;28;20984;-80
2023/08/14 06:00:18;;;;;;;5.73;3.20;;;15.40;99.90;;;;;;5027381;28;20291;-80
2023/08/14 06:02:46;;;;;;;6.03;3.50;;;15.50;99.90;;;;;;5009935;28;20304;-80
2023/08/14 06:05:13;;;;;;;5.83;3.40;;;15.60;99.90;;;;;;5026315;28;20283;-81
2023/08/14 06:07:40;;;;;;;7.63;3.50;;;15.70;99.90;;;;;;5030542;28;20529;-81
2023/08/14 06:10:07;;;;;;;3.90;3.40;;;15.90;99.90;;;;;;5024892;28;20230;-81
2023/08/14 06:12:34;;;;;;;5.73;3.13;;;16.00;99.90;;;;;;5019732;28;20869;-81
2023/08/14 06:15:01;;;;;;;8.53;3.60;;;16.00;99.90;;;;;;5027286;28;20224;-80
2023/08/14 06:17:28;;;;;;;4.87;3.37;;;16.20;99.90;;;;;;5021517;28;20810;-80
2023/08/14 06:19:56;;;;;;;5.97;3.17;;;16.30;99.90;;;;;;5026534;28;20259;-79
2023/08/14 06:22:23;;;;;;;3.57;2.93;;;16.40;99.90;;;;;;5022877;28;26275;-80
2023/08/14 06:24:50;;;;;;;5.33;3.23;;;16.50;99.90;;;;;;5030019;28;20221;-79
2023/08/14 06:27:16;;;;;;;4.80;2.97;;;16.50;99.90;;;;;;5024060;28;20347;-80
2023/08/14 06:29:43;;;;;;;4.47;2.93;;;16.60;99.90;;;;;;5029979;28;20231;-79
2023/08/14 06:32:10;;;;;;;5.10;3.10;;;16.70;99.90;;;;;;5025166;28;20223;-80
2023/08/14 06:34:37;;;;;;;5.47;3.27;;;16.80;99.90;;;;;;5036226;28;20224;-79
2023/08/14 06:37:05;;;;;;;4.90;2.90;;;16.90;99.90;;;;;;5038022;28;20312;-79
2023/08/14 06:39:32;;;;;;;5.90;3.30;;;17.00;99.90;;;;;;5028574;28;20237;-79
2023/08/14 06:41:59;;;;;;;5.03;3.00;;;17.20;99.90;;;;;;5027654;28;20228;-79
2023/08/14 06:44:27;;;;;;;4.33;2.80;;;17.30;99.90;;;;;;5034051;28;20233;-78
2023/08/14 06:46:54;;;;;;;5.88;2.95;;;17.40;99.90;;;;;;5047635;28;20327;-79
2023/08/14 06:49:20;;;;;;;4.60;3.03;;;17.60;99.90;;;;;;5027559;28;20230;-83
2023/08/14 06:51:47;;;;;;;5.75;3.20;;;17.70;99.90;;;;;;5029184;28;20323;-82
2023/08/14 06:54:15;;;;;;;7.18;3.10;;;17.90;99.90;;;;;;5021790;28;20233;-79
2023/08/14 06:56:42;;;;;;;6.72;2.80;;;18.00;99.90;;;;;;5011688;28;20242;-79
2023/08/14 06:59:08;;;;;;;7.30;3.15;;;18.20;99.90;;;;;;5018100;28;20232;-79
2023/08/14 07:01:35;;;;;;;4.50;2.83;;;18.40;99.90;;;;;;5021664;28;20225;-79
2023/08/14 07:04:02;;;;;;;4.38;2.80;;;18.50;99.90;;;;;;5022972;28;20232;-79
2023/08/14 07:06:28;;;;;;;5.05;2.78;;;18.70;99.90;;;;;;4990031;28;21467;-80
2023/08/14 07:08:55;;;;;;;5.88;2.90;;;18.80;99.90;;;;;;4995139;28;20226;-79
2023/08/14 07:11:23;;;;;;;9.23;3.30;;;18.90;99.90;;;;;;5015776;28;20327;-80
2023/08/14 07:13:50;;;;;;;5.82;2.40;;;19.00;99.90;;;;;;5021322;28;20746;-78
2023/08/14 07:16:16;;;;;;;4.13;2.67;;;19.20;99.90;;;;;;5020754;28;20721;-79
2023/08/14 07:18:43;;;;;;;3.65;2.50;;;19.40;99.90;;;;;;5019803;28;20220;-79
2023/08/14 07:21:10;;;;;;;6.78;3.15;;;19.50;99.90;;;;;;5026794;28;20214;-79
2023/08/14 07:23:37;;;;;;;5.07;2.90;;;19.60;99.90;;;;;;5025932;28;20228;-79
2023/08/14 07:26:11;;;;;;;4.32;2.63;;;19.80;99.90;;;;;;5014564;28;20294;-79
2023/08/14 07:28:39;;;;;;;5.30;2.90;;;19.90;99.90;;;;;;5017314;28;20639;-79
2023/08/14 07:31:06;;;;;;;6.30;2.53;;;20.20;99.90;;;;;;5014923;28;20228;-79
2023/08/14 07:33:33;;;;;;;5.28;2.60;;;20.50;99.90;;;;;;5022745;28;20232;-81
2023/08/14 07:36:00;;;;;;;6.38;2.70;;;20.90;99.90;;;;;;5013644;28;20217;-80
2023/08/14 07:38:27;;;;;;;4.20;2.25;;;21.40;99.90;;;;;;5025672;28;20229;-80
2023/08/14 07:40:55;;;;;;;3.50;2.17;;;21.90;99.90;;;;;;5032564;28;20856;-80
2023/08/14 07:43:23;;;;;;;4.75;2.53;;;22.50;99.90;;;;;;5016008;28;20241;-80
2023/08/14 07:45:52;;;;;;;3.90;2.10;;;23.00;99.90;;;;;;5019894;28;21008;-80
2023/08/14 07:48:19;;;;;;;4.30;2.38;;;23.50;99.90;;;;;;5015038;28;20232;-80
2023/08/14 07:50:52;;;;;;;5.40;2.40;;;24.00;99.90;;;;;;5021936;28;20219;-80
2023/08/14 07:53:18;;;;;;;5.65;2.00;;;24.30;99.90;;;;;;5018545;28;20600;-80
2023/08/14 07:55:45;;;;;;;4.85;2.20;;;24.50;99.90;;;;;;5020111;28;20714;-80
2023/08/14 07:58:11;;;;;;;4.90;2.33;;;24.80;99.90;;;;;;5023485;28;20726;-80
2023/08/14 08:00:39;;;;;;;4.05;1.95;;;25.10;99.90;;;;;;5026271;28;20226;-80
2023/08/14 08:03:07;;;;;;;5.28;2.00;;;25.50;99.90;;;;;;5026798;28;20307;-80
2023/08/14 08:05:33;;;;;;;4.22;2.00;;;25.80;99.90;;;;;;5025644;28;20323;-80
2023/08/14 08:08:01;;;;;;;5.82;2.55;;;26.10;99.90;;;;;;5024347;28;20297;-80
2023/08/14 08:10:27;;;;;;;6.10;2.15;;;26.40;99.90;;;;;;5020724;28;20229;-80
2023/08/14 08:12:54;;;;;;;3.55;1.98;;;26.70;99.90;;;;;;5025218;28;20221;-80
2023/08/14 08:15:21;;;;;;;2.97;1.70;;;26.90;99.90;;;;;;5022693;28;20231;-80
2023/08/14 08:17:48;;;;;;;3.85;1.92;;;27.00;99.90;;;;;;5018138;28;20217;-80
2023/08/14 08:20:16;;;;;;;3.85;2.13;;;27.10;98.70;;;;;;5030713;28;20225;-80
2023/08/14 08:22:42;;;;;;;3.30;2.00;;;27.10;99.40;;;;;;5021113;28;20284;-80
2023/08/14 08:25:10;;;;;;;2.65;2.03;;;27.10;99.60;;;;;;5018532;28;20255;-80
2023/08/14 08:27:36;;;;;;;4.28;1.95;;;27.10;98.80;;;;;;5019014;28;20220;-80
2023/08/14 08:30:03;;;;;;;6.35;2.15;;;27.20;99.70;;;;;;5024295;28;20229;-80
2023/08/14 08:32:30;;;;;;;2.92;1.80;;;27.20;99.40;;;;;;5028194;28;20296;-80
2023/08/14 08:34:57;;;;;;;3.30;2.03;;;27.20;99.20;;;;;;5030627;28;20228;-80
2023/08/14 08:37:25;;;;;;;5.00;2.20;;;27.30;99.40;;;;;;5016872;28;20235;-82
2023/08/14 08:39:51;;;;;;;5.07;2.08;;;27.40;99.00;;;;;;5025997;28;20996;-80
2023/08/14 08:42:19;;;;;;;4.25;2.13;;;27.40;98.40;;;;;;5017849;28;20232;-80
2023/08/14 08:44:46;;;;;;;3.97;1.77;;;27.30;97.60;;;;;;5018716;28;20233;-80
2023/08/14 08:47:17;;;;;;;4.00;1.95;;;27.30;98.40;;;;;;5019532;28;20224;-79
2023/08/14 08:49:44;;;;;;;4.40;2.10;;;27.40;98.40;;;;;;5021001;28;20738;-80
2023/08/14 08:52:11;;;;;;;5.60;2.13;;;27.40;98.40;;;;;;5021268;28;20225;-79
2023/08/14 08:54:40;;;;;;;2.97;1.92;;;27.50;98.40;;;;;;5025424;28;20228;-80
2023/08/14 08:57:09;;;;;;;3.85;2.17;;;27.80;97.00;;;;;;5013617;28;20218;-80
2023/08/14 08:59:37;;;;;;;3.67;2.00;;;28.00;97.30;;;;;;5017495;28;20229;-80
2023/08/14 09:02:03;;;;;;;3.22;2.00;;;28.10;96.80;;;;;;5017244;28;20225;-79
2023/08/14 09:04:30;;;;;;;3.20;1.95;;;28.20;96.60;;;;;;5021488;28;20221;-80
2023/08/14 09:06:57;;;;;;;4.78;2.33;;;28.30;97.00;;;;;;5023870;28;20233;-80
2023/08/14 09:09:23;;;;;;;5.95;2.33;;;28.30;95.90;;;;;;5029616;28;20674;-80
2023/08/14 09:11:51;;;;;;;5.35;2.13;;;28.30;95.60;;;;;;5018066;28;20322;-80
2023/08/14 09:14:18;;;;;;;5.15;2.00;;;28.30;95.50;;;;;;5021490;28;20235;-80
2023/08/14 09:16:45;;;;;;;4.97;2.30;;;28.30;95.60;;;;;;5010760;28;21765;-80
2023/08/14 09:19:14;;;;;;;8.13;2.33;;;28.30;95.10;;;;;;5022450;28;20255;-80
2023/08/14 09:21:44;;;;;;;5.20;2.10;;;28.20;94.80;;;;;;5017829;28;20316;-80
2023/08/14 09:24:13;;;;;;;4.85;2.33;;;28.30;95.50;;;;;;5026073;28;20306;-80
2023/08/14 09:26:42;;;;;;;2.60;2.00;;;28.30;95.80;;;;;;5020464;28;20234;-79
2023/08/14 09:29:12;;;;;;;3.67;2.08;;;28.60;95.90;;;;;;5022202;28;20234;-80
2023/08/14 09:31:42;;;;;;;3.90;2.22;;;28.80;94.80;;;;;;5042245;28;20307;-80
2023/08/14 09:34:16;;;;;;;3.55;1.95;;;28.80;94.10;;;;;;5016643;28;20630;-80
2023/08/14 09:36:42;;;;;;;8.18;2.63;;;28.90;94.00;;;;;;5012867;28;20224;-80
2023/08/14 09:39:10;;;;;;;12.07;2.45;;;28.90;94.40;;;;;;5020263;28;20501;-80
2023/08/14 09:41:38;;;;;;;5.85;2.15;;;28.90;94.20;;;;;;5020228;28;20229;-80
2023/08/14 09:44:05;;;;;;;9.70;2.45;;;29.00;94.30;;;;;;5020217;28;20232;-80
2023/08/14 09:46:33;;;;;;;6.53;2.25;;;29.10;92.80;;;;;;5020260;28;20220;-80
2023/08/14 09:49:01;;;;;;;8.30;2.83;;;29.30;92.00;;;;;;5020009;28;20217;-80
2023/08/14 09:51:27;;;;;;;4.70;2.08;;;29.40;91.20;;;;;;5026207;28;20695;-80
2023/08/14 09:53:56;;;;;;;4.45;2.60;;;29.30;90.80;;;;;;5019249;28;20235;-80
2023/08/14 09:56:23;;;;;;;4.43;2.10;;;29.30;91.20;;;;;;5016404;28;20714;-80
2023/08/14 09:58:51;;;;;;;3.72;2.28;;;29.10;89.20;;;;;;5016849;28;20764;-80
2023/08/14 10:01:19;;;;;;;5.43;2.40;;;29.00;90.50;;;;;;5021429;28;20727;-80
2023/08/14 10:03:52;;;;;;;2.88;1.98;;;28.90;91.00;;;;;;5018174;28;20228;-80
2023/08/14 10:06:23;;;;;;;4.95;2.30;;;28.70;90.30;;;;;;5019232;28;20216;-80
2023/08/14 10:08:52;;;;;;;5.18;2.15;;;28.60;91.30;;;;;;5026669;28;20224;-80
2023/08/14 10:11:20;;;;;;;4.63;1.80;;;28.60;91.10;;;;;;5032386;28;20225;-80
2023/08/14 10:13:51;;;;;;;3.85;2.10;;;28.40;90.70;;;;;;5022605;28;20276;-80
2023/08/14 10:16:22;;;;;;;4.97;2.33;;;28.40;91.50;;;;;;5018529;28;20225;-79
2023/08/14 10:18:53;;;;;;;3.47;2.03;;;28.40;91.70;;;;;;5017136;28;20225;-79
2023/08/14 10:21:21;;;;;;;3.42;2.10;;;28.40;91.20;;;;;;5021540;28;20260;-80
2023/08/14 10:23:49;;;;;;;7.35;2.10;;;28.30;90.10;;;;;;5025443;28;20227;-80
2023/08/14 10:26:17;;;;;;;2.60;1.88;;;28.30;90.90;;;;;;5016268;28;20272;-80
2023/08/14 10:28:44;;;;;;;4.88;2.30;;;28.30;91.00;;;;;;5021557;28;20734;-80
2023/08/14 10:31:12;;;;;;;6.75;2.15;;;28.20;91.00;;;;;;5019447;28;20228;-80
2023/08/14 10:33:40;;;;;;;4.75;2.30;;;28.10;91.80;;;;;;5036993;28;20753;-80
2023/08/14 10:36:08;;;;;;;6.38;2.10;;;28.10;91.20;;;;;;5013793;28;20229;-80
2023/08/14 10:38:42;;;;;;;3.13;1.95;;;28.00;91.00;;;;;;5013243;28;20224;-80
2023/08/14 10:41:10;;;;;;;3.17;1.70;;;27.90;91.70;;;;;;5010395;28;20228;-80
2023/08/14 10:43:37;;;;;;;4.07;2.00;;;28.00;91.00;;;;;;5017038;28;20245;-80
2023/08/14 10:46:09;;;;;;;3.38;1.55;;;28.00;90.00;;;;;;5019868;28;20225;-80
2023/08/14 10:48:37;;;;;;;4.40;2.25;;;28.10;89.20;;;;;;5014927;28;20230;-80
2023/08/14 10:51:06;;;;;;;4.03;2.40;;;28.30;88.90;;;;;;5013057;28;20227;-80
2023/08/14 10:53:34;;;;;;;4.53;2.25;;;28.40;90.10;;;;;;5017356;28;20221;-79
2023/08/14 10:56:01;;;;;;;6.05;2.30;;;28.50;87.00;;;;;;5017207;28;20233;-80
2023/08/14 10:58:47;;;;;;;4.70;2.08;;;28.50;88.30;;;;;;5015967;28;20308;-80
2023/08/14 11:01:13;;;;;;;3.58;2.17;;;28.50;84.40;;;;;;5034915;28;20252;-80
2023/08/14 11:04:03;;;;;;;4.15;2.08;;;28.50;85.50;;;;;;5020992;28;20229;-80
2023/08/14 11:06:49;;;;;;;4.63;2.13;;;28.50;87.10;;;;;;5020271;28;20225;-84
2023/08/14 11:09:17;;;;;;;3.28;2.00;;;28.60;88.10;;;;;;5041425;28;21012;-83
2023/08/14 11:11:48;;;;;;;5.63;2.42;;;28.80;89.60;;;;;;5023690;28;20731;-84
2023/08/14 11:14:15;;;;;;;5.03;2.25;;;29.00;89.00;;;;;;5022946;28;20227;-84
2023/08/14 11:16:42;;;;;;;5.68;2.40;;;29.20;90.00;;;;;;5021183;28;20732;-83
2023/08/14 11:19:09;;;;;;;5.05;2.35;;;29.40;90.20;;;;;;5023112;28;20216;-83
2023/08/14 11:21:35;;;;;;;6.47;2.25;;;29.70;89.50;;;;;;5033356;28;20232;-84
2023/08/14 11:24:10;;;;;;;5.18;2.30;;;29.90;90.30;;;;;;5027681;28;20773;-84
2023/08/14 11:26:38;;;;;;;3.17;2.47;;;30.20;88.60;;;;;;5021860;28;20223;-84
2023/08/14 11:29:05;;;;;;;5.13;2.40;;;30.50;87.80;;;;;;5014572;28;20244;-84
2023/08/14 11:31:31;;;;;;;5.25;2.40;;;30.70;89.40;;;;;;5020993;28;20299;-85
2023/08/14 11:33:58;;;;;;;4.47;2.45;;;30.90;86.60;;;;;;5033995;28;20308;-84
2023/08/14 11:36:25;;;;;;;4.03;2.30;;;31.00;86.90;;;;;;5027640;28;20727;-84
2023/08/14 11:38:51;;;;;;;3.28;2.30;;;31.20;84.50;;;;;;5031203;28;20228;-85
2023/08/14 11:41:18;;;;;;;3.85;2.45;;;31.20;85.80;;;;;;5023442;28;20229;-83
2023/08/14 11:43:46;;;;;;;6.07;2.33;;;31.30;85.00;;;;;;5029051;28;20231;-84
2023/08/14 11:46:13;;;;;;;6.00;2.53;;;31.30;84.80;;;;;;5022687;28;20233;-85
2023/08/14 11:48:40;;;;;;;4.07;2.25;;;31.20;84.30;;;;;;5025448;28;20604;-84
2023/08/14 11:51:07;;;;;;;4.80;2.38;;;31.20;84.20;;;;;;5021666;28;20861;-84
2023/08/14 11:53:34;;;;;;;2.67;2.20;;;31.20;84.30;;;;;;5018627;28;20224;-84
2023/08/14 11:56:01;;;;;;;3.45;2.22;;;31.20;83.20;;;;;;5022519;28;21556;-84
2023/08/14 11:58:28;;;;;;;3.80;2.33;;;31.20;83.20;;;;;;5015746;28;20313;-84
2023/08/14 12:00:57;;;;;;;3.45;2.20;;;31.10;83.90;;;;;;5011767;28;20217;-84
2023/08/14 12:03:24;;;;;;;4.45;2.00;;;31.00;85.60;;;;;;4994397;28;20235;-85
2023/08/14 12:06:01;;;;;;;3.13;2.05;;;31.10;85.80;;;;;;4983184;28;20220;-84
2023/08/14 12:08:29;;;;;;;4.25;2.30;;;31.20;87.40;;;;;;4998683;28;20233;-84
2023/08/14 12:10:55;;;;;;;3.78;1.92;;;31.40;85.90;;;;;;4991885;28;20347;-83
2023/08/14 12:13:22;;;;;;;3.30;2.00;;;31.80;86.20;;;;;;4983250;28;20225;-83
2023/08/14 12:15:49;;;;;;;5.45;2.28;;;32.20;84.00;;;;;;4978066;28;20227;-83
2023/08/14 12:18:22;;;;;;;3.47;2.03;;;32.50;82.10;;;;;;4984489;28;20222;-82
2023/08/14 12:20:52;;;;;;;3.03;2.10;;;32.80;80.00;;;;;;4980982;28;20220;-82
2023/08/14 12:23:22;;;;;;;3.25;2.20;;;33.00;80.70;;;;;;5005861;28;20229;-82
2023/08/14 12:25:49;;;;;;;3.25;2.25;;;33.10;80.70;;;;;;4999722;28;20233;-83
2023/08/14 12:28:15;;;;;;;3.50;2.08;;;33.10;78.20;;;;;;5002895;28;20995;-83
2023/08/14 12:30:42;;;;;;;3.95;2.63;;;32.90;74.70;;;;;;4982663;28;20721;-82
2023/08/14 12:33:09;;;;;;;2.58;2.10;;;32.70;75.40;;;;;;4995786;28;20741;-83
2023/08/14 12:35:37;;;;;;;3.42;2.10;;;32.50;73.80;;;;;;5001005;28;20233;-82
2023/08/14 12:38:04;;;;;;;4.13;2.20;;;32.30;75.20;;;;;;5004433;28;20219;-82
2023/08/14 12:40:31;;;;;;;3.17;2.10;;;32.30;75.10;;;;;;4990741;28;20236;-83
2023/08/14 12:42:58;;;;;;;7.15;2.17;;;32.20;76.20;;;;;;4987099;28;20225;-82
2023/08/14 12:45:25;;;;;;;4.00;1.92;;;32.30;77.90;;;;;;4994979;28;20237;-83
2023/08/14 12:47:52;;;;;;;6.30;2.40;;;32.40;78.40;;;;;;4988814;28;20962;-83
2023/08/14 12:50:18;;;;;;;3.38;2.13;;;32.60;77.80;;;;;;4990418;28;20652;-83
2023/08/14 12:52:46;;;;;;;2.83;1.92;;;32.80;75.90;;;;;;4983002;28;20691;-82